createdAt,value
2023-02-18T00:01:22.061Z,10.30
2023-02-18T00:03:51.121Z,9.87
2023-02-18T00:06:22.531Z,9.90
2023-02-18T00:08:53.072Z,9.53
2023-02-18T00:11:23.060Z,9.70
2023-02-18T00:13:52.544Z,9.93
2023-02-18T00:16:20.993Z,9.93
2023-02-18T00:18:49.821Z,10.00
2023-02-18T00:21:18.332Z,10.40
2023-02-18T00:23:46.766Z,10.70
2023-02-18T00:26:18.944Z,10.23
2023-02-18T00:28:49.625Z,9.63
2023-02-18T00:31:21.329Z,10.73
2023-02-18T00:33:49.782Z,10.53
2023-02-18T00:36:20.177Z,9.20
2023-02-18T00:38:50.708Z,9.57
2023-02-18T00:41:21.913Z,8.97
2023-02-18T00:43:50.493Z,9.30
2023-02-18T00:46:21.915Z,9.90
2023-02-18T00:48:50.352Z,9.50
2023-02-18T00:51:18.982Z,9.30
2023-02-18T00:53:49.895Z,8.93
2023-02-18T00:56:18.320Z,9.07
2023-02-18T00:58:48.212Z,9.27
2023-02-18T01:01:16.835Z,8.90
2023-02-18T01:03:45.901Z,9.53
2023-02-18T01:06:15.954Z,9.43
2023-02-18T01:08:44.368Z,8.80
2023-02-18T01:11:13.702Z,10.50
2023-02-18T01:13:42.596Z,9.03
2023-02-18T01:16:12.461Z,9.27
2023-02-18T01:18:41.228Z,9.37
2023-02-18T01:21:10.354Z,8.07
2023-02-18T01:23:39.920Z,8.57
2023-02-18T01:26:09.963Z,8.47
2023-02-18T01:28:40.884Z,9.40
2023-02-18T01:31:13.208Z,8.40
2023-02-18T01:33:42.205Z,8.33
2023-02-18T01:36:12.055Z,8.27
2023-02-18T01:38:40.934Z,8.27
2023-02-18T01:41:09.583Z,8.57
2023-02-18T01:43:38.383Z,8.10
2023-02-18T01:46:16.915Z,8.60
2023-02-18T01:48:52.112Z,7.97
2023-02-18T01:51:23.870Z,8.60
2023-02-18T01:53:56.476Z,8.30
2023-02-18T01:56:30.262Z,8.50
2023-02-18T01:59:01.832Z,8.80
2023-02-18T02:01:33.597Z,8.47
2023-02-18T02:04:03.091Z,9.00
2023-02-18T02:06:32.902Z,8.80
2023-02-18T02:09:04.635Z,8.57
2023-02-18T02:11:52.260Z,8.53
2023-02-18T02:14:39.741Z,8.60
2023-02-18T02:17:18.174Z,8.53
2023-02-18T02:20:44.349Z,9.03
2023-02-18T02:23:46.694Z,8.43
2023-02-18T02:26:55.415Z,9.30
2023-02-18T02:29:57.026Z,8.53
2023-02-18T02:32:52.705Z,9.17
2023-02-18T02:35:26.139Z,9.60
2023-02-18T02:38:03.194Z,9.27
2023-02-18T02:40:37.922Z,9.53
2023-02-18T02:43:14.091Z,9.80
2023-02-18T02:45:52.407Z,8.90
2023-02-18T02:48:30.011Z,8.50
2023-02-18T02:51:08.095Z,9.30
2023-02-18T02:53:38.537Z,9.10
2023-02-18T02:56:07.459Z,9.23
2023-02-18T02:58:36.077Z,9.10
2023-02-18T03:01:21.834Z,9.40
2023-02-18T03:04:08.957Z,8.17
2023-02-18T03:06:59.756Z,8.47
2023-02-18T03:09:36.217Z,8.23
2023-02-18T03:12:09.797Z,8.60
2023-02-18T03:14:47.381Z,8.40
2023-02-18T03:17:24.523Z,8.20
2023-02-18T03:19:58.377Z,8.73
2023-02-18T03:22:32.736Z,8.70
2023-02-18T03:25:05.073Z,8.90
2023-02-18T03:27:38.366Z,8.73
2023-02-18T03:30:12.018Z,8.33
2023-02-18T03:32:40.377Z,8.57
2023-02-18T03:35:16.777Z,9.00
2023-02-18T03:37:50.546Z,8.33
2023-02-18T03:40:19.990Z,8.90
2023-02-18T03:42:48.407Z,8.57
2023-02-18T03:45:16.861Z,8.40
2023-02-18T03:47:45.262Z,8.50
2023-02-18T03:50:17.032Z,8.67
2023-02-18T03:52:46.761Z,8.80
2023-02-18T03:55:15.347Z,8.53
2023-02-18T03:57:43.825Z,8.30
2023-02-18T04:00:12.907Z,8.50
2023-02-18T04:02:44.164Z,8.53
2023-02-18T04:05:12.713Z,8.37
2023-02-18T04:07:41.197Z,8.43
2023-02-18T04:10:11.402Z,8.60
2023-02-18T04:12:39.782Z,8.00
2023-02-18T04:15:08.531Z,8.43
2023-02-18T04:17:36.858Z,7.90
2023-02-18T04:20:05.747Z,8.07
2023-02-18T04:22:34.197Z,8.70
2023-02-18T04:25:02.644Z,8.17
2023-02-18T04:27:32.358Z,7.27
2023-02-18T04:30:01.110Z,7.73
2023-02-18T04:32:29.460Z,7.77
2023-02-18T04:34:58.042Z,7.90
2023-02-18T04:37:26.410Z,8.13
2023-02-18T04:39:54.735Z,8.10
2023-02-18T04:42:23.152Z,8.53
2023-02-18T04:44:52.811Z,7.80
2023-02-18T04:47:21.236Z,8.10
2023-02-18T04:49:49.602Z,8.13
2023-02-18T04:52:18.226Z,8.67
2023-02-18T04:54:46.982Z,8.67
2023-02-18T04:57:15.338Z,8.77
2023-02-18T04:59:44.894Z,8.20
2023-02-18T05:02:14.575Z,8.50
2023-02-18T05:04:43.024Z,8.17
2023-02-18T05:07:11.383Z,8.37
2023-02-18T05:09:39.790Z,8.07
2023-02-18T05:12:08.671Z,7.93
2023-02-18T05:14:37.200Z,7.97
2023-02-18T05:17:05.580Z,7.40
2023-02-18T05:19:35.485Z,7.90
2023-02-18T05:22:03.889Z,7.70
2023-02-18T05:24:32.312Z,7.93
2023-02-18T05:27:00.636Z,7.53
2023-02-18T05:29:29.029Z,7.33
2023-02-18T05:31:57.425Z,7.40
2023-02-18T05:34:25.940Z,8.77
2023-02-18T05:36:55.582Z,8.63
2023-02-18T05:39:23.948Z,8.90
2023-02-18T05:41:52.289Z,9.10
2023-02-18T05:44:32.690Z,8.20
2023-02-18T05:47:02.091Z,7.90
2023-02-18T05:49:30.960Z,8.13
2023-02-18T05:52:00.932Z,7.70
2023-02-18T05:54:29.753Z,7.77
2023-02-18T05:56:58.311Z,7.83
2023-02-18T05:59:26.887Z,7.73
2023-02-18T06:01:56.138Z,7.30
2023-02-18T06:04:24.598Z,8.00
2023-02-18T06:06:53.295Z,7.30
2023-02-18T06:09:23.104Z,8.23
2023-02-18T06:11:51.780Z,7.50
2023-02-18T06:14:20.371Z,6.67
2023-02-18T06:16:48.585Z,6.90
2023-02-18T06:19:16.886Z,7.30
2023-02-18T06:21:45.330Z,7.73
2023-02-18T06:24:13.675Z,7.47
2023-02-18T06:26:43.471Z,7.13
2023-02-18T06:29:11.878Z,6.80
2023-02-18T06:31:40.280Z,7.40
2023-02-18T06:34:08.603Z,6.90
2023-02-18T06:36:37.022Z,7.53
2023-02-18T06:39:06.574Z,7.10
2023-02-18T06:41:35.546Z,6.93
2023-02-18T06:44:05.714Z,7.20
2023-02-18T06:46:34.573Z,7.67
2023-02-18T06:49:02.934Z,6.90
2023-02-18T06:51:31.494Z,7.43
2023-02-18T06:53:59.963Z,6.77
2023-02-18T06:56:30.099Z,6.23
2023-02-18T06:58:59.377Z,6.53
2023-02-18T07:01:29.060Z,6.67
2023-02-18T07:03:57.543Z,6.60
2023-02-18T07:06:26.126Z,5.93
2023-02-18T07:08:54.604Z,6.30
2023-02-18T07:11:22.992Z,6.70
2023-02-18T07:13:51.420Z,6.13
2023-02-18T07:16:19.848Z,6.40
2023-02-18T07:18:49.522Z,6.63
2023-02-18T07:21:17.915Z,6.47
2023-02-18T07:23:46.219Z,6.23
2023-02-18T07:26:16.175Z,6.10
2023-02-18T07:28:44.621Z,6.43
2023-02-18T07:31:13.175Z,5.80
2023-02-18T07:33:41.802Z,5.70
2023-02-18T07:36:11.769Z,5.77
2023-02-18T07:38:41.947Z,6.00
2023-02-18T07:41:18.148Z,5.53
2023-02-18T07:43:46.950Z,5.90
2023-02-18T07:46:15.581Z,5.47
2023-02-18T07:48:44.047Z,5.90
2023-02-18T07:51:14.679Z,5.60
2023-02-18T07:53:43.125Z,5.40
2023-02-18T07:56:12.291Z,6.07
2023-02-18T07:58:41.141Z,5.27
2023-02-18T08:01:11.843Z,5.40
2023-02-18T08:03:40.299Z,5.40
2023-02-18T08:06:10.129Z,5.13
2023-02-18T08:08:40.025Z,5.60
2023-02-18T08:11:18.661Z,5.57
2023-02-18T08:13:47.576Z,4.93
2023-02-18T08:16:16.137Z,5.27
2023-02-18T08:18:44.863Z,5.50
2023-02-18T08:21:13.246Z,5.30
2023-02-18T08:23:42.865Z,5.30
2023-02-18T08:26:11.500Z,5.50
2023-02-18T08:28:43.940Z,5.40
2023-02-18T08:31:19.216Z,5.80
2023-02-18T08:33:48.050Z,6.07
2023-02-18T08:36:16.466Z,6.13
2023-02-18T08:38:46.114Z,5.77
2023-02-18T08:41:16.384Z,6.60
2023-02-18T08:43:44.789Z,6.57
2023-02-18T08:46:16.001Z,6.23
2023-02-18T08:48:53.247Z,6.00
2023-02-18T08:51:24.078Z,5.60
2023-02-18T08:53:53.766Z,5.60
2023-02-18T08:56:22.076Z,5.47
2023-02-18T08:58:50.386Z,5.67
2023-02-18T09:01:18.787Z,6.70
2023-02-18T09:03:47.269Z,6.20
2023-02-18T09:06:15.649Z,5.70
2023-02-18T09:08:44.324Z,6.40
2023-02-18T09:11:14.302Z,6.30
2023-02-18T09:13:42.674Z,6.20
2023-02-18T09:16:14.663Z,9.83
2023-02-18T09:18:43.384Z,10.37
2023-02-18T09:21:14.265Z,6.80
2023-02-18T09:23:42.821Z,7.27
2023-02-18T09:26:15.437Z,6.70
2023-02-18T09:28:44.444Z,8.13
2023-02-18T09:31:17.212Z,7.07
2023-02-18T09:33:47.692Z,6.60
2023-02-18T09:36:16.592Z,7.90
2023-02-18T09:38:45.007Z,6.90
2023-02-18T09:41:27.830Z,6.83
2023-02-18T09:43:59.532Z,6.93
2023-02-18T09:46:33.400Z,7.00
2023-02-18T09:49:04.886Z,8.13
2023-02-18T09:51:33.490Z,7.93
2023-02-18T09:54:02.008Z,8.50
2023-02-18T09:56:35.982Z,8.20
2023-02-18T09:59:10.504Z,8.57
2023-02-18T10:01:41.238Z,8.67
2023-02-18T10:04:17.144Z,10.70
2023-02-18T10:06:47.320Z,9.27
2023-02-18T10:09:21.109Z,9.60
2023-02-18T10:11:56.385Z,9.60
2023-02-18T10:14:25.494Z,9.33
2023-02-18T10:16:54.924Z,8.60
2023-02-18T10:19:27.366Z,8.70
2023-02-18T10:21:57.182Z,8.77
2023-02-18T10:24:32.730Z,8.90
2023-02-18T10:27:04.955Z,9.07
2023-02-18T10:29:33.664Z,8.80
2023-02-18T10:32:11.618Z,9.20
2023-02-18T10:34:47.503Z,9.40
2023-02-18T10:37:39.813Z,9.33
2023-02-18T10:40:15.320Z,9.20
2023-02-18T10:42:54.711Z,8.37
2023-02-18T10:45:34.835Z,8.60
2023-02-18T10:48:26.244Z,7.87
2023-02-18T10:50:54.882Z,8.23
2023-02-18T10:53:31.992Z,9.30
2023-02-18T10:56:00.627Z,9.20
2023-02-18T10:58:33.682Z,9.10
2023-02-18T11:01:05.590Z,8.63
2023-02-18T11:03:45.561Z,9.53
2023-02-18T11:06:26.789Z,9.03
2023-02-18T11:08:57.932Z,8.37
2023-02-18T11:11:30.921Z,8.77
2023-02-18T11:14:04.372Z,8.67
2023-02-18T11:16:40.716Z,9.60
2023-02-18T11:19:33.835Z,9.40
2023-02-18T11:22:10.509Z,8.80
2023-02-18T11:24:40.580Z,8.87
2023-02-18T11:27:13.024Z,8.87
2023-02-18T11:29:44.245Z,9.53
2023-02-18T11:32:14.015Z,9.70
2023-02-18T11:34:45.641Z,9.47
2023-02-18T11:37:20.230Z,9.63
2023-02-18T11:39:51.819Z,9.70
2023-02-18T11:42:22.707Z,10.10
2023-02-18T11:44:55.132Z,8.83
2023-02-18T11:47:27.152Z,8.60
2023-02-18T11:50:12.449Z,8.93
2023-02-18T11:52:42.431Z,8.60
2023-02-18T11:55:17.172Z,10.30
2023-02-18T11:57:50.356Z,8.90
2023-02-18T12:00:25.680Z,9.40
2023-02-18T12:02:56.594Z,9.70
2023-02-18T12:05:27.333Z,10.70
2023-02-18T12:08:02.424Z,12.33
2023-02-18T12:10:36.206Z,8.20
2023-02-18T12:13:08.950Z,10.53
2023-02-18T12:15:51.121Z,9.27
2023-02-18T12:18:38.524Z,9.10
2023-02-18T12:21:23.157Z,8.97
2023-02-18T12:24:04.609Z,8.60
2023-02-18T12:26:44.916Z,7.63
2023-02-18T12:29:40.382Z,8.10
2023-02-18T12:32:24.825Z,7.70
2023-02-18T12:35:05.546Z,7.80
2023-02-18T12:37:54.264Z,7.87
2023-02-18T12:40:50.762Z,7.90
2023-02-18T12:43:28.375Z,8.60
2023-02-18T12:46:28.831Z,7.93
2023-02-18T12:49:21.076Z,7.90
2023-02-18T12:52:06.213Z,7.77
2023-02-18T12:54:54.096Z,7.73
2023-02-18T12:57:38.109Z,8.30
2023-02-18T13:00:32.816Z,8.47
2023-02-18T13:03:28.914Z,8.50
2023-02-18T13:06:10.234Z,8.87
2023-02-18T13:08:52.179Z,9.13
2023-02-18T13:11:37.956Z,10.33
2023-02-18T13:14:13.933Z,9.97
2023-02-18T13:16:46.007Z,9.03
2023-02-18T13:19:22.404Z,9.23
2023-02-18T13:21:55.501Z,9.70
2023-02-18T13:24:31.356Z,9.40
2023-02-18T13:27:12.056Z,9.17
2023-02-18T13:29:48.404Z,9.47
2023-02-18T13:32:23.689Z,9.33
2023-02-18T13:34:57.113Z,9.33
2023-02-18T13:37:34.482Z,9.50
2023-02-18T13:40:03.601Z,8.70
2023-02-18T13:42:37.589Z,9.20
2023-02-18T13:45:25.851Z,9.10
2023-02-18T13:47:55.590Z,9.30
2023-02-18T13:50:31.187Z,8.87
2023-02-18T13:53:16.728Z,8.70
2023-02-18T13:55:54.910Z,9.70
2023-02-18T13:58:28.600Z,8.77
2023-02-18T14:01:02.150Z,9.10
2023-02-18T14:03:39.246Z,8.80
2023-02-18T14:06:19.412Z,9.23
2023-02-18T14:08:50.271Z,9.20
2023-02-18T14:11:48.193Z,8.60
2023-02-18T14:14:40.425Z,9.33
2023-02-18T14:17:38.999Z,8.27
2023-02-18T14:20:33.332Z,9.20
2023-02-18T14:23:02.783Z,8.67
2023-02-18T14:25:39.622Z,8.10
2023-02-18T14:28:40.099Z,8.43
2023-02-18T14:31:31.119Z,8.00
2023-02-18T14:34:23.589Z,8.97
2023-02-18T14:37:02.073Z,8.70
2023-02-18T14:39:43.556Z,8.73
2023-02-18T14:42:23.692Z,7.67
2023-02-18T14:45:05.449Z,8.40
2023-02-18T14:47:46.546Z,7.60
2023-02-18T14:50:18.944Z,7.40
2023-02-18T14:52:50.498Z,7.70
2023-02-18T14:55:24.910Z,8.00
2023-02-18T14:58:01.046Z,7.23
2023-02-18T15:00:34.896Z,7.80
2023-02-18T15:03:03.816Z,7.80
2023-02-18T15:05:34.136Z,7.50
2023-02-18T15:08:04.262Z,8.03
2023-02-18T15:10:39.828Z,7.70
2023-02-18T15:13:16.078Z,7.30
2023-02-18T15:15:46.042Z,7.07
2023-02-18T15:18:25.164Z,7.47
2023-02-18T15:20:53.874Z,7.43
2023-02-18T15:23:22.595Z,7.10
2023-02-18T15:25:54.199Z,7.30
2023-02-18T15:28:27.263Z,6.57
2023-02-18T15:30:57.317Z,7.47
2023-02-18T15:33:26.322Z,7.00
2023-02-18T15:36:02.319Z,7.70
2023-02-18T15:38:31.357Z,8.20
2023-02-18T15:41:01.829Z,8.13
2023-02-18T15:43:32.336Z,8.27
2023-02-18T15:46:00.930Z,8.43
2023-02-18T15:48:33.651Z,8.43
2023-02-18T15:51:16.277Z,8.20
2023-02-18T15:53:49.027Z,8.50
2023-02-18T15:56:25.230Z,8.40
2023-02-18T15:59:09.149Z,8.53
2023-02-18T16:01:38.324Z,8.87
2023-02-18T16:04:08.730Z,8.47
2023-02-18T16:06:40.561Z,8.50
2023-02-18T16:09:17.100Z,7.73
2023-02-18T16:11:48.749Z,7.77
2023-02-18T16:14:29.792Z,8.30
2023-02-18T16:17:11.395Z,7.87
2023-02-18T16:20:03.317Z,8.80
2023-02-18T16:22:37.408Z,8.67
2023-02-18T16:25:16.141Z,8.43
2023-02-18T16:27:52.316Z,7.90
2023-02-18T16:30:24.387Z,7.93
2023-02-18T16:32:54.319Z,7.87
2023-02-18T16:35:23.861Z,7.30
2023-02-18T16:37:52.861Z,7.43
2023-02-18T16:40:28.498Z,7.80
2023-02-18T16:42:58.835Z,7.93
2023-02-18T16:45:35.840Z,8.40
2023-02-18T16:48:04.897Z,8.37
2023-02-18T16:50:35.140Z,8.50
2023-02-18T16:53:03.470Z,9.20
2023-02-18T16:55:32.348Z,9.00
2023-02-18T16:58:00.920Z,8.70
2023-02-18T17:00:30.712Z,8.60
2023-02-18T17:03:01.270Z,9.47
2023-02-18T17:05:31.426Z,8.97
2023-02-18T17:08:06.161Z,8.73
2023-02-18T17:10:36.573Z,9.00
2023-02-18T17:13:04.941Z,9.10
2023-02-18T17:15:36.305Z,9.17
2023-02-18T17:18:05.576Z,9.00
2023-02-18T17:20:34.816Z,9.07
2023-02-18T17:23:03.213Z,8.40
2023-02-18T17:25:34.529Z,8.73
2023-02-18T17:28:03.514Z,8.87
2023-02-18T17:30:33.385Z,8.87
2023-02-18T17:33:03.486Z,8.90
2023-02-18T17:35:33.083Z,8.77
2023-02-18T17:38:01.677Z,8.70
2023-02-18T17:40:31.205Z,8.77
2023-02-18T17:42:59.721Z,7.93
2023-02-18T17:45:32.104Z,8.80
2023-02-18T17:48:02.928Z,8.53
2023-02-18T17:50:32.685Z,8.60
2023-02-18T17:53:01.109Z,8.17
2023-02-18T17:55:33.466Z,8.50
2023-02-18T17:58:02.165Z,8.60
2023-02-18T18:00:33.806Z,8.80
2023-02-18T18:03:03.991Z,8.00
2023-02-18T18:05:34.992Z,8.20
2023-02-18T18:08:04.784Z,7.90
2023-02-18T18:10:35.150Z,7.73
2023-02-18T18:13:05.822Z,8.40
2023-02-18T18:15:39.111Z,7.67
2023-02-18T18:18:10.413Z,7.70
2023-02-18T18:20:39.930Z,8.33
2023-02-18T18:23:09.266Z,8.53
2023-02-18T18:25:39.547Z,8.80
2023-02-18T18:28:09.349Z,8.40
2023-02-18T18:30:40.657Z,8.70
2023-02-18T18:33:16.721Z,7.70
2023-02-18T18:35:47.639Z,7.93
2023-02-18T18:38:16.128Z,7.97
2023-02-18T18:40:45.750Z,8.70
2023-02-18T18:43:18.947Z,9.33
2023-02-18T18:45:47.576Z,10.07
2023-02-18T18:48:20.168Z,9.80
2023-02-18T18:50:53.576Z,9.93
2023-02-18T18:53:24.006Z,11.57
2023-02-18T18:55:54.776Z,11.60
2023-02-18T18:58:24.784Z,11.20
2023-02-18T19:00:55.798Z,10.90
2023-02-18T19:03:26.899Z,11.83
2023-02-18T19:05:55.936Z,12.33
2023-02-18T19:08:24.558Z,12.77
2023-02-18T19:10:55.127Z,12.40
2023-02-18T19:13:25.939Z,13.50
2023-02-18T19:16:02.547Z,14.70
2023-02-18T19:18:33.775Z,14.90
2023-02-18T19:21:03.553Z,15.27
2023-02-18T19:23:32.017Z,16.47
2023-02-18T19:26:00.952Z,16.47
2023-02-18T19:28:29.886Z,16.43
2023-02-18T19:30:58.343Z,17.60
2023-02-18T19:33:26.696Z,18.20
2023-02-18T19:35:56.455Z,17.23
2023-02-18T19:38:24.791Z,16.70
2023-02-18T19:40:53.992Z,16.50
2023-02-18T19:43:22.423Z,16.90
2023-02-18T19:45:50.945Z,17.10
2023-02-18T19:48:20.859Z,16.13
2023-02-18T19:50:49.271Z,16.10
2023-02-18T19:53:18.920Z,17.30
2023-02-18T19:55:47.309Z,17.87
2023-02-18T19:58:15.626Z,18.83
2023-02-18T20:00:44.703Z,17.70
2023-02-18T20:03:13.100Z,17.93
2023-02-18T20:05:41.511Z,17.40
2023-02-18T20:08:09.953Z,18.10
2023-02-18T20:10:39.784Z,17.13
2023-02-18T20:13:11.448Z,18.57
2023-02-18T20:15:41.265Z,17.30
2023-02-18T20:18:09.677Z,16.80
2023-02-18T20:20:37.992Z,16.17
2023-02-18T20:23:06.348Z,16.47
2023-02-18T20:25:34.667Z,15.27
2023-02-18T20:28:04.354Z,15.63
2023-02-18T20:30:32.754Z,15.17
2023-02-18T20:33:01.098Z,15.47
2023-02-18T20:35:29.487Z,16.20
2023-02-18T20:37:57.858Z,16.03
2023-02-18T20:40:27.174Z,16.47
2023-02-18T20:42:55.687Z,17.17
2023-02-18T20:45:25.390Z,19.73
2023-02-18T20:47:53.849Z,18.13
2023-02-18T20:50:22.391Z,19.73
2023-02-18T20:52:50.776Z,21.13
2023-02-18T20:55:19.278Z,20.03
2023-02-18T20:57:47.700Z,19.17
2023-02-18T21:00:17.240Z,17.87
2023-02-18T21:02:46.982Z,16.23
2023-02-18T21:05:15.478Z,16.93
2023-02-18T21:07:43.817Z,16.40
2023-02-18T21:10:12.204Z,16.20
2023-02-18T21:12:40.560Z,15.87
2023-02-18T21:15:09.612Z,15.10
2023-02-18T21:17:38.309Z,12.77
2023-02-18T21:20:08.996Z,10.53
2023-02-18T21:22:37.465Z,9.30
2023-02-18T21:25:06.314Z,9.27
2023-02-18T21:27:34.768Z,8.83
2023-02-18T21:30:04.365Z,9.30
2023-02-18T21:32:32.912Z,8.97
2023-02-18T21:35:01.830Z,8.80
2023-02-18T21:37:31.590Z,9.80
2023-02-18T21:40:00.377Z,9.33
2023-02-18T21:42:28.780Z,9.00
2023-02-18T21:44:57.512Z,9.07
2023-02-18T21:47:25.836Z,8.90
2023-02-18T21:49:54.250Z,8.60
2023-02-18T21:52:22.540Z,9.40
2023-02-18T21:54:53.417Z,9.20
2023-02-18T21:57:22.984Z,8.77
2023-02-18T21:59:52.216Z,9.90
2023-02-18T22:02:23.102Z,9.40
2023-02-18T22:04:52.918Z,8.83
2023-02-18T22:07:23.231Z,8.90
2023-02-18T22:09:53.851Z,9.53
2023-02-18T22:12:25.504Z,9.60
2023-02-18T22:14:54.082Z,9.77
2023-02-18T22:17:22.765Z,9.77
2023-02-18T22:19:51.118Z,9.70
2023-02-18T22:22:19.708Z,9.60
2023-02-18T22:24:48.083Z,10.73
2023-02-18T22:27:19.474Z,10.30
2023-02-18T22:29:48.340Z,10.60
2023-02-18T22:32:16.901Z,10.50
2023-02-18T22:34:45.405Z,10.80
2023-02-18T22:37:13.926Z,10.53
2023-02-18T22:39:42.304Z,10.27
2023-02-18T22:42:10.710Z,10.40
2023-02-18T22:44:40.554Z,10.20
2023-02-18T22:47:09.277Z,10.73
2023-02-18T22:49:37.640Z,11.07
2023-02-18T22:52:06.241Z,9.67
2023-02-18T22:54:34.617Z,9.70
2023-02-18T22:57:03.013Z,10.80
2023-02-18T22:59:31.426Z,10.93
2023-02-18T23:02:01.161Z,10.10
2023-02-18T23:04:29.523Z,10.10
2023-02-18T23:06:57.851Z,10.00
2023-02-18T23:09:26.935Z,10.03
2023-02-18T23:11:58.168Z,9.50
2023-02-18T23:14:28.428Z,10.20
2023-02-18T23:17:14.455Z,10.30
2023-02-18T23:19:45.902Z,10.20
2023-02-18T23:22:16.552Z,10.10
2023-02-18T23:24:46.673Z,10.17
2023-02-18T23:27:16.260Z,10.07
2023-02-18T23:29:44.770Z,9.50
2023-02-18T23:32:13.533Z,9.50
2023-02-18T23:34:43.248Z,10.00
2023-02-18T23:37:12.093Z,10.27
2023-02-18T23:39:40.972Z,9.70
2023-02-18T23:42:09.607Z,10.10
2023-02-18T23:44:37.985Z,9.57
2023-02-18T23:47:06.367Z,9.73
2023-02-18T23:49:34.787Z,10.73
2023-02-18T23:52:05.087Z,10.57
2023-02-18T23:54:33.520Z,10.33
2023-02-18T23:57:01.851Z,10.53
2023-02-18T23:59:30.182Z,10.00
